Time;durP1;ratioP1;P1;durP2;ratioP2;P2;SDS_P1;SDS_P2;PMS_P1;PMS_P2;Temp;Humidity;BMP_temperature;BMP_pressure;BME280_temperature;BME280_humidity;BME280_pressure;Samples;Min_cycle;Max_cycle;Signal;HPM_P1;HPM_P2
2022/07/19 00:00:01;;;;;;;8.80;8.30;;;;;;;18.44;63.39;93478.69;5077251;28;20186;-70
2022/07/19 00:02:26;;;;;;;9.43;8.73;;;;;;;18.51;63.56;93476.34;5077791;28;20248;-70
2022/07/19 00:04:51;;;;;;;9.67;9.03;;;;;;;18.39;64.10;93460.28;5062891;28;20250;-70
2022/07/19 00:07:17;;;;;;;13.43;10.03;;;;;;;18.44;63.69;93468.09;5077264;28;20217;-70
2022/07/19 00:09:42;;;;;;;10.47;9.40;;;;;;;18.51;64.09;93479.00;5080609;28;20201;-69
2022/07/19 00:12:08;;;;;;;9.73;9.13;;;;;;;18.45;64.31;93467.78;5081310;28;20228;-70
2022/07/19 00:14:34;;;;;;;8.63;8.03;;;;;;;18.46;64.36;93473.88;5082348;28;20190;-69
2022/07/19 00:16:59;;;;;;;10.73;9.90;;;;;;;18.51;63.92;93469.22;5079157;28;20319;-70
2022/07/19 00:19:25;;;;;;;10.07;9.43;;;;;;;18.45;64.07;93477.59;5079091;28;20196;-69
2022/07/19 00:21:50;;;;;;;8.90;8.23;;;;;;;18.45;64.18;93478.38;5076448;28;20284;-69
2022/07/19 00:24:15;;;;;;;9.90;9.30;;;;;;;18.46;64.34;93477.28;5063582;28;20186;-69
2022/07/19 00:26:41;;;;;;;8.37;7.97;;;;;;;18.47;64.03;93478.06;5058491;28;20225;-69
2022/07/19 00:29:07;;;;;;;9.93;9.40;;;;;;;18.35;64.49;93464.63;5062116;28;20185;-70
2022/07/19 00:31:32;;;;;;;9.30;8.77;;;;;;;18.29;65.20;93463.19;5076925;28;20226;-70
2022/07/19 00:33:57;;;;;;;9.43;8.93;;;;;;;18.34;64.50;93463.03;5078159;28;20190;-69
2022/07/19 00:36:23;;;;;;;9.37;8.87;;;;;;;18.37;64.34;93468.50;5077313;28;20244;-70
2022/07/19 00:38:48;;;;;;;9.20;8.53;;;;;;;18.32;64.08;93465.97;5081282;28;20189;-70
2022/07/19 00:41:14;;;;;;;8.77;7.77;;;;;;;18.41;64.36;93474.00;5078183;28;20236;-70
2022/07/19 00:43:41;;;;;;;9.33;8.73;;;;;;;18.26;65.03;93472.50;5080100;28;20203;-69
2022/07/19 00:46:18;;;;;;;8.87;8.37;;;;;;;18.22;65.18;93470.75;5081715;28;20247;-70
2022/07/19 00:48:44;;;;;;;8.73;8.20;;;;;;;18.19;64.35;93463.44;5083097;28;20190;-70
2022/07/19 00:51:11;;;;;;;9.03;8.17;;;;;;;18.28;64.67;93472.19;5078884;28;20291;-70
2022/07/19 00:53:38;;;;;;;9.77;8.80;;;;;;;18.07;66.30;93474.56;5078007;28;20193;-71
2022/07/19 00:56:08;;;;;;;9.40;8.80;;;;;;;18.02;66.40;93472.06;5071060;28;20237;-70
2022/07/19 00:58:36;;;;;;;9.77;8.97;;;;;;;18.11;65.22;93474.75;5081466;28;20186;-70
2022/07/19 01:01:04;;;;;;;9.47;8.77;;;;;;;18.11;65.78;93469.47;5082798;28;20249;-69
2022/07/19 01:03:29;;;;;;;9.30;8.83;;;;;;;17.99;65.22;93451.53;5083888;28;20267;-71
2022/07/19 01:05:55;;;;;;;10.03;9.50;;;;;;;18.08;64.82;93460.28;5081897;28;20238;-69
2022/07/19 01:08:21;;;;;;;8.60;8.20;;;;;;;18.12;65.15;93465.72;5085817;28;20194;-69
2022/07/19 01:10:46;;;;;;;8.80;8.10;;;;;;;17.96;65.94;93469.84;5081969;28;20229;-70
2022/07/19 01:13:13;;;;;;;8.73;7.90;;;;;;;18.07;65.45;93457.94;5083185;28;20198;-70
2022/07/19 01:15:41;;;;;;;8.67;8.27;;;;;;;17.89;66.02;93464.19;5080450;28;20179;-70
2022/07/19 01:18:06;;;;;;;9.47;8.73;;;;;;;17.98;65.48;93459.78;5082236;28;20184;-70
2022/07/19 01:20:32;;;;;;;7.80;7.30;;;;;;;17.98;65.15;93465.81;5080083;28;20216;-69
2022/07/19 01:22:58;;;;;;;8.97;8.37;;;;;;;17.99;65.71;93466.59;5080767;28;20181;-70
2022/07/19 01:25:26;;;;;;;8.83;8.27;;;;;;;18.00;64.91;93442.53;5083262;28;20187;-70
2022/07/19 01:27:52;;;;;;;8.30;7.77;;;;;;;17.99;65.43;93456.03;5072475;28;20211;-70
2022/07/19 01:30:23;;;;;;;8.73;8.30;;;;;;;18.00;65.36;93457.59;5072125;28;20205;-70
2022/07/19 01:32:49;;;;;;;9.13;8.63;;;;;;;17.91;65.86;93457.56;5061975;28;20239;-70
2022/07/19 01:35:15;;;;;;;9.40;8.70;;;;;;;17.84;66.21;93461.72;5061267;28;20206;-70
2022/07/19 01:37:41;;;;;;;9.13;8.50;;;;;;;17.88;65.67;93457.38;5059674;28;20303;-69
2022/07/19 01:40:10;;;;;;;8.87;8.20;;;;;;;18.02;64.52;93453.56;5062841;28;20194;-70
2022/07/19 01:42:35;;;;;;;9.53;9.00;;;;;;;17.91;65.80;93457.56;5060930;28;20251;-70
2022/07/19 01:45:01;;;;;;;8.30;7.80;;;;;;;17.87;65.52;93459.22;5060265;28;20211;-70
2022/07/19 01:47:26;;;;;;;9.23;8.63;;;;;;;17.90;65.32;93450.69;5062920;28;20240;-70
2022/07/19 01:49:52;;;;;;;10.10;9.57;;;;;;;17.90;65.56;93458.63;5061456;28;20205;-70
2022/07/19 01:52:17;;;;;;;9.07;8.47;;;;;;;17.90;65.52;93452.56;5059792;28;20221;-70
2022/07/19 01:54:43;;;;;;;10.20;9.50;;;;;;;17.82;66.06;93448.00;5060372;28;20183;-69
2022/07/19 01:57:08;;;;;;;9.53;9.03;;;;;;;17.84;66.03;93443.22;5062618;28;20236;-70
2022/07/19 01:59:38;;;;;;;9.97;9.27;;;;;;;17.83;66.46;93449.56;5057742;28;20216;-70
2022/07/19 02:02:03;;;;;;;9.00;8.50;;;;;;;17.75;66.76;93442.38;5060980;28;20230;-70
2022/07/19 02:04:29;;;;;;;8.37;7.97;;;;;;;17.93;65.50;93457.25;5093204;28;20194;-70
2022/07/19 02:06:54;;;;;;;8.93;8.53;;;;;;;17.87;65.18;93446.00;5060336;28;20230;-71
2022/07/19 02:09:20;;;;;;;8.70;8.10;;;;;;;17.89;65.08;93453.63;5061694;28;20189;-70
2022/07/19 02:11:45;;;;;;;9.07;8.37;;;;;;;17.82;65.74;93440.84;5058378;28;20255;-70
2022/07/19 02:14:11;;;;;;;8.47;8.00;;;;;;;17.85;65.10;93450.84;5061083;28;20190;-70
2022/07/19 02:16:38;;;;;;;9.00;8.40;;;;;;;17.78;64.48;93445.19;5058798;28;20223;-69
2022/07/19 02:19:05;;;;;;;8.77;8.27;;;;;;;17.88;65.19;93457.38;5061499;28;20179;-69
2022/07/19 02:21:30;;;;;;;8.67;7.97;;;;;;;17.89;64.69;93461.56;5062986;28;20714;-70
2022/07/19 02:23:56;;;;;;;8.73;8.23;;;;;;;17.92;65.29;93455.66;5062765;28;20197;-70
2022/07/19 02:26:21;;;;;;;9.60;9.07;;;;;;;17.80;66.06;93456.25;5058947;28;20223;-69
2022/07/19 02:28:47;;;;;;;9.07;8.20;;;;;;;17.74;66.59;93459.31;5061627;28;20205;-70
2022/07/19 02:31:13;;;;;;;9.37;8.87;;;;;;;17.67;67.03;93459.72;5060939;28;20245;-70
2022/07/19 02:33:38;;;;;;;9.13;8.63;;;;;;;17.60;67.01;93451.47;5058796;28;20205;-69
2022/07/19 02:36:04;;;;;;;8.90;8.43;;;;;;;17.58;67.09;93462.31;5059734;28;20229;-70
2022/07/19 02:38:30;;;;;;;9.70;8.97;;;;;;;17.51;67.44;93461.94;5061007;28;20194;-69
2022/07/19 02:40:55;;;;;;;8.50;8.07;;;;;;;17.70;66.75;93466.28;5059353;28;20218;-70
2022/07/19 02:43:21;;;;;;;8.63;8.23;;;;;;;17.70;66.55;93467.03;5062357;28;20204;-69
2022/07/19 02:45:46;;;;;;;8.60;7.93;;;;;;;17.28;69.21;93462.97;5060024;28;21355;-70
2022/07/19 02:48:11;;;;;;;8.97;8.57;;;;;;;17.09;69.77;93470.25;5064063;28;20188;-70
2022/07/19 02:50:37;;;;;;;8.83;8.23;;;;;;;16.91;71.14;93463.28;5061532;28;20256;-71
2022/07/19 02:53:02;;;;;;;7.93;7.53;;;;;;;16.79;71.33;93460.38;5058177;28;20265;-69
2022/07/19 02:55:27;;;;;;;9.03;8.33;;;;;;;16.68;71.61;93461.66;5062458;28;20201;-71
2022/07/19 02:57:53;;;;;;;8.47;7.57;;;;;;;16.66;72.26;93461.16;5060973;28;20186;-70
2022/07/19 03:00:19;;;;;;;8.77;8.37;;;;;;;16.69;72.39;93465.03;5061773;28;20200;-70
2022/07/19 03:02:44;;;;;;;9.70;9.20;;;;;;;16.60;72.99;93464.97;5059869;28;20214;-69
2022/07/19 03:05:10;;;;;;;8.73;8.23;;;;;;;16.47;73.55;93467.63;5058893;28;20246;-69
2022/07/19 03:07:35;;;;;;;8.07;7.67;;;;;;;16.48;73.86;93472.59;5057843;28;20243;-69
2022/07/19 03:10:01;;;;;;;9.33;8.73;;;;;;;16.47;73.85;93471.00;5062327;28;20190;-70
2022/07/19 03:12:26;;;;;;;11.03;9.60;;;;;;;16.50;72.83;93459.13;5059904;28;20222;-70
2022/07/19 03:14:52;;;;;;;10.17;9.37;;;;;;;16.82;71.72;93459.78;5058279;28;20213;-70
2022/07/19 03:17:17;;;;;;;8.73;8.23;;;;;;;16.89;71.70;93460.13;5060377;28;20251;-69
2022/07/19 03:19:42;;;;;;;9.57;9.00;;;;;;;17.28;69.56;93436.59;5060083;28;20211;-71
2022/07/19 03:22:08;;;;;;;9.20;8.37;;;;;;;17.70;68.41;93468.91;5056659;28;20260;-70
2022/07/19 03:24:33;;;;;;;8.17;7.60;;;;;;;17.47;68.73;93433.81;5062032;28;20965;-70
2022/07/19 03:26:59;;;;;;;9.37;8.87;;;;;;;17.65;68.56;93467.16;5057538;28;20241;-71
2022/07/19 03:29:24;;;;;;;8.40;8.00;;;;;;;17.66;68.83;93470.59;5059504;28;20197;-69
2022/07/19 03:31:50;;;;;;;8.47;8.07;;;;;;;18.09;67.38;93485.63;5061637;28;20217;-70
2022/07/19 03:34:15;;;;;;;9.00;8.50;;;;;;;18.00;67.71;93489.28;5061834;28;20193;-70
2022/07/19 03:36:40;;;;;;;10.47;9.50;;;;;;;18.20;66.58;93488.78;5057560;28;20230;-70
2022/07/19 03:39:06;;;;;;;8.80;8.30;;;;;;;18.06;64.94;93482.78;5062276;28;20209;-70
2022/07/19 03:41:31;;;;;;;9.80;9.20;;;;;;;18.93;61.94;93486.28;5060571;28;20297;-70
2022/07/19 03:43:57;;;;;;;8.77;8.27;;;;;;;19.38;59.30;93481.59;5059230;28;20186;-71
2022/07/19 03:46:22;;;;;;;10.40;9.67;;;;;;;19.16;60.05;93487.75;5058886;28;20232;-70
2022/07/19 03:48:48;;;;;;;9.30;8.17;;;;;;;19.01;59.99;93488.97;5060228;28;20205;-69
2022/07/19 03:51:13;;;;;;;9.63;8.77;;;;;;;19.12;59.21;93498.19;5057512;28;20316;-69
2022/07/19 03:53:39;;;;;;;9.37;8.87;;;;;;;19.78;57.61;93494.34;5059011;28;20194;-70
2022/07/19 03:56:04;;;;;;;8.83;8.33;;;;;;;20.30;55.48;93497.72;5061087;28;20236;-69
2022/07/19 03:58:30;;;;;;;8.77;8.23;;;;;;;20.27;55.79;93493.03;5058703;28;20207;-69
2022/07/19 04:00:55;;;;;;;9.07;8.57;;;;;;;20.08;56.94;93495.22;5060234;28;20233;-70
2022/07/19 04:03:21;;;;;;;8.93;8.43;;;;;;;19.96;56.03;93490.59;5060607;28;20226;-71
2022/07/19 04:05:46;;;;;;;9.47;8.87;;;;;;;20.18;56.96;93505.53;5061054;28;20736;-70
2022/07/19 04:08:12;;;;;;;9.90;9.30;;;;;;;20.39;57.20;93501.91;5089865;28;20289;-70
2022/07/19 04:10:38;;;;;;;9.90;9.13;;;;;;;20.38;58.60;93504.88;5055686;28;20267;-70
2022/07/19 04:13:03;;;;;;;8.47;7.97;;;;;;;19.74;60.61;93496.06;5058685;28;20198;-70
2022/07/19 04:15:29;;;;;;;8.07;7.67;;;;;;;19.59;61.11;93514.31;5057294;28;20180;-70
2022/07/19 04:17:54;;;;;;;8.43;8.03;;;;;;;18.86;64.05;93523.03;5059756;28;20202;-68
2022/07/19 04:20:20;;;;;;;7.70;7.23;;;;;;;18.09;67.14;93519.97;5060452;28;20187;-70
2022/07/19 04:22:45;;;;;;;8.27;7.83;;;;;;;18.46;67.32;93530.16;5060382;28;20279;-72
2022/07/19 04:25:10;;;;;;;9.87;8.93;;;;;;;18.04;68.17;93519.34;5057308;28;20191;-70
2022/07/19 04:27:36;;;;;;;7.97;7.57;;;;;;;18.08;67.91;93507.88;5060507;28;20221;-70
2022/07/19 04:30:03;;;;;;;9.30;8.50;;;;;;;18.07;68.20;93522.13;5055023;28;20184;-70
2022/07/19 04:32:29;;;;;;;7.53;7.23;;;;;;;19.06;65.50;93533.03;5056487;28;20218;-70
2022/07/19 04:34:55;;;;;;;8.70;8.20;;;;;;;19.33;64.20;93527.50;5060376;28;20188;-70
2022/07/19 04:37:21;;;;;;;9.90;9.20;;;;;;;19.37;63.73;93520.53;5061334;28;20219;-70
2022/07/19 04:39:47;;;;;;;9.87;8.80;;;;;;;19.06;65.15;93523.25;5059046;28;20208;-70
2022/07/19 04:42:12;;;;;;;8.20;7.70;;;;;;;18.56;66.11;93513.25;5059152;28;20211;-70
2022/07/19 04:44:37;;;;;;;8.83;8.13;;;;;;;18.93;64.96;93529.44;5058311;28;20199;-70
2022/07/19 04:47:03;;;;;;;8.57;7.87;;;;;;;18.89;65.66;93519.75;5056652;28;20297;-69
2022/07/19 04:49:28;;;;;;;8.50;7.27;;;;;;;19.21;64.20;93519.38;5058476;28;20222;-69
2022/07/19 04:51:54;;;;;;;7.83;7.23;;;;;;;19.35;63.69;93530.63;5058031;28;20241;-70
2022/07/19 04:54:19;;;;;;;7.80;7.37;;;;;;;19.25;64.50;93530.91;5060011;28;20199;-71
2022/07/19 04:56:45;;;;;;;7.70;7.20;;;;;;;19.22;65.49;93531.53;5059434;28;20677;-70
2022/07/19 04:59:10;;;;;;;8.60;8.17;;;;;;;19.39;64.47;93514.91;5057772;28;20730;-70
2022/07/19 05:01:36;;;;;;;9.53;8.83;;;;;;;19.76;63.54;93530.19;5056678;28;20223;-70
2022/07/19 05:04:01;;;;;;;10.00;9.23;;;;;;;19.73;63.62;93521.00;5061707;28;20850;-70
2022/07/19 05:06:27;;;;;;;8.17;7.77;;;;;;;19.81;63.58;93538.78;5058364;28;20766;-70
2022/07/19 05:08:52;;;;;;;8.13;7.73;;;;;;;19.76;64.04;93524.91;5060643;28;20229;-70
2022/07/19 05:11:18;;;;;;;7.87;7.47;;;;;;;19.88;64.17;93536.44;5058140;28;20227;-70
2022/07/19 05:13:44;;;;;;;8.40;8.00;;;;;;;19.88;64.25;93523.19;5058207;28;20266;-71
2022/07/19 05:16:10;;;;;;;8.90;8.10;;;;;;;19.95;63.24;93538.63;5058208;28;20227;-70
2022/07/19 05:18:35;;;;;;;10.47;8.40;;;;;;;19.99;62.70;93536.88;5061335;28;20216;-70
2022/07/19 05:21:01;;;;;;;7.87;7.43;;;;;;;20.07;62.40;93536.91;5056829;28;20231;-69
2022/07/19 05:23:26;;;;;;;10.80;10.10;;;;;;;20.17;62.33;93544.53;5058013;28;20940;-70
2022/07/19 05:25:51;;;;;;;8.63;8.13;;;;;;;20.30;61.75;93538.28;5056736;28;20244;-70
2022/07/19 05:28:17;;;;;;;9.27;8.67;;;;;;;20.18;62.26;93524.91;5056663;28;20207;-70
2022/07/19 05:30:43;;;;;;;8.73;8.00;;;;;;;20.49;60.88;93546.69;5057693;28;20184;-69
2022/07/19 05:33:08;;;;;;;8.43;7.87;;;;;;;20.50;61.12;93540.25;5059977;28;20182;-70
2022/07/19 05:35:34;;;;;;;9.53;8.07;;;;;;;21.34;58.86;93544.78;5058623;28;20215;-70
2022/07/19 05:37:59;;;;;;;8.20;7.70;;;;;;;21.91;56.69;93543.94;5058732;28;20187;-70
2022/07/19 05:40:25;;;;;;;8.20;7.80;;;;;;;21.78;56.77;93546.84;5057173;28;20188;-70
2022/07/19 05:42:50;;;;;;;9.43;8.63;;;;;;;22.48;54.07;93549.34;5057890;28;20255;-70
2022/07/19 05:45:15;;;;;;;10.38;7.97;;;;;;;22.61;53.50;93556.31;5060295;28;20197;-70
2022/07/19 05:47:41;;;;;;;8.32;7.72;;;;;;;22.49;53.51;93542.16;5061441;28;20324;-69
2022/07/19 05:50:06;;;;;;;10.57;9.98;;;;;;;22.59;53.43;93553.19;5059745;28;20186;-70
2022/07/19 05:52:32;;;;;;;8.48;7.88;;;;;;;23.59;51.25;93556.06;5061964;28;20285;-71
2022/07/19 05:54:57;;;;;;;8.02;7.53;;;;;;;27.35;42.05;93571.09;5062366;28;20370;-70
2022/07/19 05:57:23;;;;;;;7.03;6.63;;;;;;;30.57;34.10;93572.16;5062231;28;20230;-68
2022/07/19 05:59:48;;;;;;;8.25;7.72;;;;;;;31.38;32.93;93572.38;5060165;28;20216;-71
2022/07/19 06:02:14;;;;;;;8.40;7.53;;;;;;;33.07;29.69;93573.56;5061094;28;20248;-70
2022/07/19 06:04:40;;;;;;;7.70;7.18;;;;;;;33.17;29.21;93577.38;5060730;28;20186;-70
2022/07/19 06:07:05;;;;;;;7.20;6.70;;;;;;;33.41;29.13;93573.75;5061554;28;20235;-70
2022/07/19 06:09:31;;;;;;;7.18;6.78;;;;;;;32.05;31.00;93573.91;5062423;28;20232;-71
2022/07/19 06:11:56;;;;;;;7.45;6.97;;;;;;;32.44;29.58;93569.19;5061895;28;20225;-70
2022/07/19 06:14:21;;;;;;;7.30;6.82;;;;;;;34.25;27.64;93581.16;5062268;28;20182;-70
2022/07/19 06:16:47;;;;;;;7.50;7.00;;;;;;;33.86;28.23;93569.91;5061180;28;20233;-70
2022/07/19 06:19:12;;;;;;;6.85;6.43;;;;;;;35.20;25.90;93574.63;5060366;28;20186;-71
2022/07/19 06:21:38;;;;;;;6.93;6.40;;;;;;;35.80;25.59;93585.34;5063435;28;20218;-70
2022/07/19 06:24:04;;;;;;;9.38;6.30;;;;;;;37.87;23.68;93586.69;5058734;28;21096;-70
2022/07/19 06:26:29;;;;;;;7.05;6.32;;;;;;;38.56;22.71;93590.06;5057858;28;20237;-71
2022/07/19 06:28:55;;;;;;;6.15;5.70;;;;;;;39.47;21.19;93592.91;5059440;28;20213;-71
2022/07/19 06:31:21;;;;;;;6.00;5.50;;;;;;;40.18;20.47;93588.69;5062240;28;20248;-70
2022/07/19 06:33:49;;;;;;;6.70;6.18;;;;;;;38.92;21.89;93577.69;5060592;28;20182;-71
2022/07/19 06:36:15;;;;;;;6.05;5.63;;;;;;;39.55;21.13;93584.03;5057486;28;20336;-71
2022/07/19 06:38:43;;;;;;;13.95;6.43;;;;;;;37.23;23.41;93577.66;5059718;28;20194;-71
2022/07/19 06:41:10;;;;;;;6.35;5.80;;;;;;;38.16;22.45;93571.19;5060746;28;20305;-70
2022/07/19 06:43:35;;;;;;;6.20;5.80;;;;;;;37.11;22.75;93573.59;5061696;28;20186;-71
2022/07/19 06:46:01;;;;;;;6.43;5.88;;;;;;;34.46;26.24;93561.22;5059334;28;20240;-70
2022/07/19 06:48:27;;;;;;;6.43;6.10;;;;;;;29.89;33.50;93553.28;5060983;28;20204;-70
2022/07/19 06:50:52;;;;;;;6.57;6.20;;;;;;;28.34;35.99;93548.34;5061245;28;20249;-70
2022/07/19 06:53:17;;;;;;;8.80;7.47;;;;;;;26.67;39.56;93536.19;5061153;28;20209;-71
2022/07/19 06:55:43;;;;;;;7.70;7.30;;;;;;;25.06;42.92;93530.75;5058392;28;20188;-70
2022/07/19 06:58:09;;;;;;;8.05;7.65;;;;;;;24.52;45.72;93519.06;5059813;28;20183;-70
2022/07/19 07:00:34;;;;;;;7.82;7.43;;;;;;;24.25;45.54;93537.78;5061217;28;20186;-71
2022/07/19 07:02:59;;;;;;;8.38;7.75;;;;;;;23.96;46.56;93535.41;5059798;28;20253;-70
2022/07/19 07:05:25;;;;;;;6.88;6.47;;;;;;;23.92;47.33;93543.31;5058011;28;20253;-70
2022/07/19 07:07:52;;;;;;;8.30;7.68;;;;;;;23.84;44.58;93528.22;5060934;28;20718;-70
2022/07/19 07:10:17;;;;;;;7.95;7.45;;;;;;;23.74;44.45;93537.47;5058589;28;20187;-70
2022/07/19 07:12:43;;;;;;;8.98;7.95;;;;;;;23.74;46.26;93534.81;5059468;28;20249;-72
2022/07/19 07:15:09;;;;;;;8.20;7.72;;;;;;;23.65;44.53;93528.84;5056434;28;20180;-68
2022/07/19 07:17:37;;;;;;;9.02;8.15;;;;;;;23.71;45.17;93516.81;5059371;28;20232;-70
2022/07/19 07:20:07;;;;;;;8.32;7.72;;;;;;;23.65;44.27;93534.16;5059861;28;20203;-70
2022/07/19 07:22:34;;;;;;;7.20;6.63;;;;;;;23.29;43.70;93531.53;5060836;28;20731;-70
2022/07/19 07:24:59;;;;;;;8.25;7.55;;;;;;;23.51;42.44;93523.06;5061093;28;20197;-68
2022/07/19 07:27:25;;;;;;;7.53;7.20;;;;;;;23.77;41.64;93529.91;5060793;28;20220;-71
2022/07/19 07:29:50;;;;;;;8.50;8.00;;;;;;;23.73;39.98;93530.59;5062669;28;20184;-70
2022/07/19 07:32:16;;;;;;;8.13;7.65;;;;;;;23.74;39.51;93524.13;5059859;28;20218;-70
2022/07/19 07:34:41;;;;;;;16.48;8.85;;;;;;;23.71;40.95;93494.69;5057019;28;20193;-70
2022/07/19 07:37:06;;;;;;;7.93;7.43;;;;;;;24.05;39.09;93536.84;5058926;28;20239;-70
2022/07/19 07:39:32;;;;;;;7.90;7.50;;;;;;;24.24;36.45;93533.56;5061479;28;20196;-70
2022/07/19 07:41:57;;;;;;;7.65;7.15;;;;;;;24.06;37.84;93517.06;5059985;28;20661;-71
2022/07/19 07:44:23;;;;;;;8.40;7.80;;;;;;;24.08;36.78;93524.75;5061854;28;20239;-70
2022/07/19 07:46:48;;;;;;;8.45;7.85;;;;;;;24.08;37.71;93530.06;5056079;28;20221;-70
2022/07/19 07:49:13;;;;;;;7.05;6.75;;;;;;;24.36;38.36;93530.84;5057201;28;20219;-69
2022/07/19 07:51:39;;;;;;;8.02;7.40;;;;;;;23.85;40.21;93537.00;5058163;28;20284;-70
2022/07/19 07:54:05;;;;;;;7.32;6.95;;;;;;;23.90;39.33;93540.22;5060772;28;20197;-70
2022/07/19 07:56:31;;;;;;;8.32;7.60;;;;;;;23.81;41.44;93530.78;5059772;28;20220;-70
2022/07/19 07:58:56;;;;;;;7.00;6.70;;;;;;;24.06;38.95;93526.97;5061924;28;20265;-70
2022/07/19 08:01:21;;;;;;;7.05;6.55;;;;;;;23.94;37.92;93526.97;5060930;28;20239;-70
2022/07/19 08:03:47;;;;;;;7.75;7.25;;;;;;;23.85;38.44;93529.78;5059839;28;20229;-70
2022/07/19 08:06:12;;;;;;;8.05;7.55;;;;;;;23.93;38.23;93522.75;5060693;28;20231;-69
2022/07/19 08:08:38;;;;;;;21.90;10.48;;;;;;;24.04;40.24;93524.63;5059657;28;20186;-70
2022/07/19 08:11:05;;;;;;;7.35;6.75;;;;;;;24.47;39.39;93526.53;5057714;28;20312;-70
2022/07/19 08:13:30;;;;;;;7.53;7.13;;;;;;;23.88;41.09;93520.34;5058974;28;20237;-70
2022/07/19 08:15:56;;;;;;;7.72;7.22;;;;;;;23.27;41.37;93515.09;5056278;28;20580;-70
2022/07/19 08:18:21;;;;;;;9.30;8.70;;;;;;;22.97;41.96;93518.31;5059453;28;20193;-70
2022/07/19 08:20:47;;;;;;;8.40;7.68;;;;;;;22.93;42.29;93533.38;5058369;28;20264;-70
2022/07/19 08:23:12;;;;;;;8.45;7.90;;;;;;;23.15;43.12;93533.72;5058198;28;20207;-70
2022/07/19 08:25:37;;;;;;;7.88;7.43;;;;;;;23.31;42.22;93526.66;5056809;28;20185;-70
2022/07/19 08:28:04;;;;;;;7.97;7.55;;;;;;;23.24;43.66;93541.59;5055084;28;20197;-70
2022/07/19 08:30:29;;;;;;;8.45;7.80;;;;;;;23.08;45.06;93535.41;5058109;28;20675;-71
2022/07/19 08:32:55;;;;;;;8.15;7.75;;;;;;;23.69;41.83;93529.69;5060362;28;20189;-69
2022/07/19 08:35:20;;;;;;;8.00;7.50;;;;;;;23.72;43.19;93534.34;5057113;28;20185;-70
2022/07/19 08:37:46;;;;;;;7.85;7.30;;;;;;;23.42;44.13;93535.75;5061732;28;20240;-70
2022/07/19 08:40:11;;;;;;;8.05;7.45;;;;;;;23.57;42.53;93521.72;5056655;28;20249;-71
2022/07/19 08:42:37;;;;;;;7.90;7.50;;;;;;;24.05;42.14;93528.09;5058529;28;20254;-70
2022/07/19 08:45:06;;;;;;;6.85;6.45;;;;;;;24.44;40.89;93520.00;5057534;28;20190;-70
2022/07/19 08:47:31;;;;;;;7.78;7.18;;;;;;;24.63;40.47;93528.13;5058463;28;20228;-70
2022/07/19 08:49:59;;;;;;;7.75;7.35;;;;;;;24.87;39.09;93527.25;5058374;28;20349;-70
2022/07/19 08:52:26;;;;;;;7.75;7.25;;;;;;;24.43;39.38;93520.34;5057417;28;20225;-70
2022/07/19 08:54:51;;;;;;;8.52;7.88;;;;;;;24.47;39.35;93513.19;5058431;28;20192;-71
2022/07/19 09:00:01;;;;;;;7.20;6.70;;;;;;;24.91;40.29;93510.19;5058351;28;20664;-70
2022/07/19 09:02:26;;;;;;;7.20;6.80;;;;;;;25.26;38.81;93512.91;5058322;28;20223;-70
2022/07/19 09:05:00;;;;;;;7.50;7.10;;;;;;;25.38;39.23;93520.06;5056513;28;20220;-71
2022/07/19 09:07:26;;;;;;;6.95;6.65;;;;;;;25.34;39.65;93519.97;5057286;28;20242;-71
2022/07/19 09:09:52;;;;;;;8.15;7.47;;;;;;;25.65;37.99;93527.94;5057139;28;20181;-70
2022/07/19 09:12:17;;;;;;;8.23;7.55;;;;;;;25.48;37.60;93516.88;5059031;28;20292;-70
2022/07/19 09:14:53;;;;;;;8.57;8.07;;;;;;;25.21;38.49;93507.84;5057857;28;20220;-70
2022/07/19 09:17:19;;;;;;;7.00;6.57;;;;;;;25.60;36.72;93525.56;5056129;28;20253;-70
2022/07/19 09:19:46;;;;;;;8.98;8.38;;;;;;;25.32;36.49;93519.56;5060295;28;20280;-71
2022/07/19 09:22:15;;;;;;;8.35;7.57;;;;;;;24.34;40.81;93511.72;5061293;28;20219;-70
2022/07/19 09:24:45;;;;;;;7.22;6.88;;;;;;;23.92;40.83;93513.19;5060605;28;20253;-69
2022/07/19 09:27:13;;;;;;;7.50;7.10;;;;;;;24.10;38.75;93512.59;5061361;28;20251;-71
2022/07/19 09:29:44;;;;;;;7.75;7.25;;;;;;;23.93;38.99;93512.84;5064459;28;20221;-70
2022/07/19 09:32:16;;;;;;;7.53;7.13;;;;;;;24.81;36.73;93504.59;5063675;28;20223;-70
2022/07/19 09:34:49;;;;;;;8.20;7.63;;;;;;;25.23;37.78;93510.94;5061389;28;20184;-70
2022/07/19 09:37:27;;;;;;;7.78;7.38;;;;;;;25.43;37.83;93507.22;5063090;28;20221;-70
2022/07/19 09:39:58;;;;;;;8.05;7.60;;;;;;;25.44;36.35;93506.09;5062348;28;20247;-70
2022/07/19 09:42:44;;;;;;;8.40;7.80;;;;;;;25.34;37.98;93506.63;5061597;28;20227;-71
2022/07/19 09:45:12;;;;;;;7.63;6.97;;;;;;;25.46;35.69;93513.75;5061498;28;20249;-70
2022/07/19 09:47:42;;;;;;;7.50;7.00;;;;;;;25.35;36.04;93502.84;5060170;28;20300;-70
2022/07/19 09:50:10;;;;;;;7.32;7.03;;;;;;;25.06;38.34;93501.38;5060787;28;20185;-70
2022/07/19 09:52:38;;;;;;;8.02;7.50;;;;;;;25.51;38.10;93500.88;5059414;28;20275;-69
2022/07/19 09:55:06;;;;;;;7.38;6.95;;;;;;;25.52;36.36;93507.81;5060491;28;20224;-71
2022/07/19 09:57:35;;;;;;;7.35;6.95;;;;;;;25.42;36.47;93502.97;5060131;28;20221;-70
2022/07/19 10:00:03;;;;;;;8.00;7.20;;;;;;;25.62;37.48;93507.25;5061589;28;20197;-71
2022/07/19 10:02:29;;;;;;;7.15;6.60;;;;;;;25.84;36.50;93495.88;5059854;28;20239;-70
2022/07/19 10:04:57;;;;;;;7.60;7.20;;;;;;;26.26;35.44;93499.41;5060846;28;20178;-70
2022/07/19 10:07:23;;;;;;;7.60;7.00;;;;;;;25.96;36.07;93493.06;5060303;28;20225;-70
2022/07/19 10:09:50;;;;;;;8.65;7.70;;;;;;;26.77;36.55;93500.00;5062380;28;20186;-71
2022/07/19 10:12:15;;;;;;;7.20;6.70;;;;;;;27.52;32.90;93505.44;5063084;28;20232;-70
2022/07/19 10:14:42;;;;;;;8.15;7.50;;;;;;;27.01;33.91;93499.63;5061994;28;20182;-70
2022/07/19 10:17:28;;;;;;;8.00;7.50;;;;;;;27.20;35.00;93501.47;5063568;28;20248;-70
2022/07/19 10:19:56;;;;;;;8.45;7.95;;;;;;;27.14;33.38;93500.22;5061192;28;20186;-71
2022/07/19 10:22:24;;;;;;;7.65;7.10;;;;;;;27.66;30.91;93482.25;5060284;28;20236;-70
2022/07/19 10:24:57;;;;;;;7.57;7.05;;;;;;;27.79;30.60;93486.25;5061024;28;20251;-71
2022/07/19 10:27:25;;;;;;;7.45;7.05;;;;;;;27.02;31.72;93487.00;5058214;28;20220;-70
2022/07/19 10:29:56;;;;;;;7.03;6.72;;;;;;;26.74;32.56;93484.66;5060841;28;20186;-70
2022/07/19 10:32:29;;;;;;;7.53;7.10;;;;;;;26.75;32.83;93486.19;5061329;28;20249;-70
2022/07/19 10:35:14;;;;;;;7.93;7.38;;;;;;;27.03;32.77;93467.09;5059893;28;20204;-68
2022/07/19 10:37:41;;;;;;;8.23;7.80;;;;;;;27.37;32.46;93482.19;5062064;28;20248;-70
2022/07/19 10:40:07;;;;;;;7.75;7.30;;;;;;;27.89;31.39;93488.31;5061321;28;20198;-70
2022/07/19 10:42:32;;;;;;;7.65;7.20;;;;;;;27.89;31.29;93482.19;5059478;28;20229;-70
2022/07/19 10:44:59;;;;;;;7.45;6.95;;;;;;;27.74;30.65;93485.78;5059901;28;20193;-71
2022/07/19 10:47:39;;;;;;;8.77;8.18;;;;;;;27.89;31.91;93487.56;5060421;28;20282;-71
2022/07/19 10:50:07;;;;;;;7.65;7.20;;;;;;;27.32;31.26;93485.19;5060572;28;20225;-70
2022/07/19 10:52:34;;;;;;;8.00;7.50;;;;;;;26.80;31.86;93479.75;5060861;28;20241;-70
2022/07/19 10:55:24;;;;;;;7.45;6.95;;;;;;;26.61;31.25;93475.97;5058952;28;20220;-70
2022/07/19 10:57:53;;;;;;;8.02;7.53;;;;;;;26.28;32.91;93469.59;5059119;28;20675;-70
2022/07/19 11:00:25;;;;;;;7.40;7.00;;;;;;;26.38;33.84;93461.75;5060678;28;20216;-70
2022/07/19 11:02:53;;;;;;;7.70;7.30;;;;;;;26.59;31.62;93472.09;5060265;28;20241;-70
2022/07/19 11:05:26;;;;;;;7.60;7.20;;;;;;;26.79;31.92;93460.19;5063155;28;20241;-70
2022/07/19 11:07:54;;;;;;;7.30;6.90;;;;;;;26.65;31.28;93451.94;5061551;28;20221;-70
2022/07/19 11:10:30;;;;;;;7.18;6.88;;;;;;;26.90;32.82;93457.72;5061046;28;20182;-70
2022/07/19 11:12:58;;;;;;;7.53;7.13;;;;;;;26.94;33.69;93463.91;5049844;28;20206;-70
2022/07/19 11:15:27;;;;;;;6.57;6.28;;;;;;;26.47;33.11;93450.84;5050591;28;20182;-70
2022/07/19 11:18:01;;;;;;;6.82;6.53;;;;;;;26.93;31.26;93446.28;5059967;28;20239;-70
2022/07/19 11:20:28;;;;;;;7.68;7.07;;;;;;;26.95;32.44;93447.47;5060641;28;20193;-74
2022/07/19 11:22:56;;;;;;;6.95;6.55;;;;;;;27.24;34.19;93456.72;5060170;28;20181;-70
2022/07/19 11:25:30;;;;;;;8.15;7.38;;;;;;;27.18;33.22;93453.53;5059723;28;20247;-70
2022/07/19 11:27:57;;;;;;;8.02;7.28;;;;;;;27.11;31.27;93452.66;5080590;28;20207;-70
2022/07/19 11:30:24;;;;;;;7.82;7.32;;;;;;;26.65;32.79;93457.28;5077067;28;20189;-70